Time;durP1;ratioP1;P1;durP2;ratioP2;P2;SDS_P1;SDS_P2;PMS_P1;PMS_P2;Temp;Humidity;BMP_temperature;BMP_pressure;BME280_temperature;BME280_humidity;BME280_pressure;Samples;Min_cycle;Max_cycle;Signal;HPM_P1;HPM_P2
2022/12/13 00:00:45;;;;;;;;;34.25;34.25;;;;;1.16;59.60;100570.13;2456720;27;46096;-76
2022/12/13 00:01:55;;;;;;;;;46.50;37.50;;;;;1.16;60.10;100567.53;2458775;27;44666;-76
2022/12/13 00:03:06;;;;;;;;;47.00;39.50;;;;;1.16;59.67;100567.53;2449194;28;47937;-76
2022/12/13 00:04:19;;;;;;;;;62.25;43.25;;;;;1.15;59.80;100560.63;2452627;27;45201;-76
2022/12/13 00:05:31;;;;;;;;;50.25;40.25;;;;;1.14;59.44;100559.75;2458564;27;46358;-76
2022/12/13 00:06:42;;;;;;;;;46.00;38.25;;;;;1.15;59.78;100560.63;2457199;27;45544;-76
2022/12/13 00:07:52;;;;;;;;;57.25;40.25;;;;;1.15;59.57;100555.44;2458321;27;46108;-76
2022/12/13 00:09:04;;;;;;;;;53.25;39.75;;;;;1.15;59.66;100553.72;2439906;28;45263;-76
2022/12/13 00:10:14;;;;;;;;;31.00;29.50;;;;;1.14;59.65;100548.56;2437705;28;47207;-76
2022/12/13 00:11:25;;;;;;;;;42.75;35.50;;;;;1.12;59.35;100551.13;2439007;28;44800;-76
2022/12/13 00:12:36;;;;;;;;;45.00;36.25;;;;;1.11;59.39;100552.00;2452101;27;45374;-76
2022/12/13 00:13:46;;;;;;;;;51.25;36.50;;;;;1.14;59.00;100557.16;2458165;27;45208;-76
2022/12/13 00:14:57;;;;;;;;;32.50;31.00;;;;;1.14;59.50;100551.16;2454826;27;46075;-76
2022/12/13 00:16:11;;;;;;;;;46.25;34.75;;;;;1.14;59.63;100545.97;2460756;27;45259;-76
2022/12/13 00:17:22;;;;;;;;;46.75;37.00;;;;;1.12;58.94;100546.81;2460420;27;47498;-76
2022/12/13 00:18:33;;;;;;;;;48.50;39.50;;;;;1.13;59.86;100550.28;2456917;27;45412;-76
2022/12/13 00:19:43;;;;;;;;;46.75;39.50;;;;;1.12;59.17;100543.34;2456413;27;46220;-76
2022/12/13 00:20:53;;;;;;;;;34.75;25.75;;;;;1.13;59.69;100547.69;2443514;28;45481;-76
2022/12/13 00:22:04;;;;;;;;;50.25;39.25;;;;;1.11;60.09;100544.22;2445785;27;45670;-76
2022/12/13 00:23:14;;;;;;;;;49.75;37.50;;;;;1.11;59.43;100545.06;2459850;27;45611;-76
2022/12/13 00:24:24;;;;;;;;;37.50;35.25;;;;;1.10;59.77;100542.50;2460575;27;45301;-76
2022/12/13 00:25:35;;;;;;;;;44.75;35.25;;;;;1.10;59.37;100535.59;2457693;27;44701;-76
2022/12/13 00:26:45;;;;;;;;;42.50;36.25;;;;;1.10;59.62;100530.41;2450442;28;45386;-76
2022/12/13 00:27:55;;;;;;;;;50.25;42.50;;;;;1.10;59.41;100530.41;2459009;27;44628;-76
2022/12/13 00:29:06;;;;;;;;;46.50;37.00;;;;;1.10;59.38;100533.00;2453358;27;45553;-76
2022/12/13 00:30:17;;;;;;;;;49.25;39.00;;;;;1.08;58.80;100533.84;2453337;27;45259;-76
2022/12/13 00:31:30;;;;;;;;;39.75;31.50;;;;;1.07;59.71;100532.97;2453694;27;45649;-76
2022/12/13 00:32:40;;;;;;;;;48.50;38.75;;;;;1.05;59.42;100534.72;2449957;28;45501;-76
2022/12/13 00:33:51;;;;;;;;;47.50;35.00;;;;;1.05;59.98;100534.72;2454541;27;45424;-76
2022/12/13 00:35:02;;;;;;;;;45.25;39.50;;;;;1.03;59.54;100531.25;2453255;27;44827;-76
2022/12/13 00:36:12;;;;;;;;;37.75;35.75;;;;;1.03;59.38;100532.97;2457027;27;46292;-76
2022/12/13 00:37:23;;;;;;;;;64.25;40.25;;;;;1.01;59.28;100527.81;2462194;27;45401;-76
2022/12/13 00:38:34;;;;;;;;;47.25;36.75;;;;;1.03;59.97;100528.66;2460200;27;46249;-76
2022/12/13 00:39:45;;;;;;;;;40.00;35.25;;;;;1.03;60.00;100538.16;2449974;27;47026;-76
2022/12/13 00:40:55;;;;;;;;;46.00;37.75;;;;;1.01;59.53;100531.22;2453013;27;45346;-76
2022/12/13 00:42:05;;;;;;;;;61.00;41.00;;;;;1.02;59.79;100529.50;2460321;27;45263;-76
2022/12/13 00:43:16;;;;;;;;;41.00;37.00;;;;;1.00;59.50;100533.81;2453071;27;45315;-76
2022/12/13 00:44:27;;;;;;;;;49.75;36.50;;;;;1.01;59.73;100530.41;2452154;27;45228;-76
2022/12/13 00:45:37;;;;;;;;;57.00;41.50;;;;;1.00;58.84;100528.66;2451943;27;45224;-76
2022/12/13 00:46:50;;;;;;;;;57.00;43.25;;;;;0.98;58.97;100526.06;2452439;28;44561;-76
2022/12/13 00:48:00;;;;;;;;;54.25;44.25;;;;;0.98;59.15;100527.78;2461186;27;46125;-76
2022/12/13 00:49:12;;;;;;;;;62.00;45.50;;;;;0.98;59.73;100528.66;2449398;28;45438;-76
2022/12/13 00:50:23;;;;;;;;;56.75;44.25;;;;;0.96;59.58;100525.19;2444490;28;47303;-76
2022/12/13 00:51:34;;;;;;;;;50.75;40.00;;;;;0.97;59.70;100528.63;2451165;27;44815;-76
2022/12/13 00:52:44;;;;;;;;;51.50;40.50;;;;;0.96;59.29;100526.91;2460167;27;45379;-76
2022/12/13 00:53:55;;;;;;;;;57.75;44.00;;;;;0.97;59.17;100526.91;2450427;27;44658;-76
2022/12/13 00:55:06;;;;;;;;;44.25;40.25;;;;;0.97;59.09;100520.88;2454468;27;45251;-76
2022/12/13 00:56:20;;;;;;;;;46.00;31.00;;;;;0.95;59.48;100525.19;2461239;27;45216;-76
2022/12/13 00:57:32;;;;;;;;;56.50;43.00;;;;;0.93;59.52;100519.13;2451176;28;47259;-76
2022/12/13 00:58:42;;;;;;;;;37.50;32.00;;;;;0.92;60.12;100523.44;2453401;27;45402;-76
2022/12/13 00:59:53;;;;;;;;;50.50;40.50;;;;;0.92;59.37;100520.84;2460453;27;45344;-76
2022/12/13 01:01:06;;;;;;;;;46.75;38.00;;;;;0.92;59.77;100525.16;2451392;28;45177;-76
2022/12/13 01:02:16;;;;;;;;;45.50;40.00;;;;;0.90;59.43;100522.56;2453579;27;47152;-76
2022/12/13 01:03:27;;;;;;;;;45.50;34.50;;;;;0.92;59.41;100528.63;2458961;27;45212;-76
2022/12/13 01:04:37;;;;;;;;;46.50;37.75;;;;;0.92;59.31;100527.75;2452757;27;46261;-76
2022/12/13 01:05:48;;;;;;;;;48.75;37.75;;;;;0.93;59.59;100524.31;2444949;28;45386;-76
2022/12/13 01:06:58;;;;;;;;;43.75;39.00;;;;;0.91;59.31;100526.03;2449912;28;46229;-76
2022/12/13 01:08:08;;;;;;;;;41.25;37.00;;;;;0.91;59.82;100520.84;2452573;27;44587;-76
2022/12/13 01:09:22;;;;;;;;;46.25;32.50;;;;;0.91;59.07;100521.72;2447918;28;47146;-76
2022/12/13 01:10:32;;;;;;;;;48.75;38.00;;;;;0.91;59.87;100523.44;2454062;27;45432;-76
2022/12/13 01:11:43;;;;;;;;;44.25;37.25;;;;;0.91;59.08;100523.44;2459614;27;46266;-76
2022/12/13 01:12:54;;;;;;;;;43.00;36.25;;;;;0.89;59.00;100519.13;2450300;27;45262;-76
2022/12/13 01:14:04;;;;;;;;;50.75;39.25;;;;;0.89;59.59;100524.28;2450611;27;45582;-76
2022/12/13 01:15:15;;;;;;;;;47.75;36.00;;;;;0.88;59.45;100522.59;2453252;27;45490;-76
2022/12/13 01:16:25;;;;;;;;;41.75;32.00;;;;;0.87;59.44;100519.97;2452919;27;45436;-76
2022/12/13 01:17:35;;;;;;;;;31.75;28.25;;;;;0.88;59.41;100526.88;2457490;27;45227;-76
2022/12/13 01:18:46;;;;;;;;;38.50;34.00;;;;;0.85;58.78;100527.75;2455531;27;45216;-76
2022/12/13 01:19:56;;;;;;;;;45.00;38.00;;;;;0.84;59.22;100523.41;2459882;27;45271;-76
2022/12/13 01:21:09;;;;;;;;;39.50;33.50;;;;;0.85;59.07;100530.31;2451058;28;48154;-76
2022/12/13 01:22:19;;;;;;;;;50.50;35.50;;;;;0.84;59.18;100528.56;2445617;27;46243;-76
2022/12/13 01:23:30;;;;;;;;;40.50;29.75;;;;;0.85;58.59;100527.75;2461821;27;45197;-76
2022/12/13 01:24:40;;;;;;;;;40.50;33.25;;;;;0.85;58.65;100530.31;2451112;28;45412;-76
2022/12/13 01:25:51;;;;;;;;;50.00;33.25;;;;;0.84;58.72;100528.56;2453596;27;46138;-76
2022/12/13 01:27:01;;;;;;;;;44.50;39.50;;;;;0.83;59.59;100523.41;2454484;27;45456;-76
2022/12/13 01:28:12;;;;;;;;;41.00;34.00;;;;;0.84;59.45;100526.00;2451120;28;47399;-76
2022/12/13 01:29:23;;;;;;;;;33.50;30.25;;;;;0.85;59.64;100522.56;2446383;28;45354;-76
2022/12/13 01:30:33;;;;;;;;;31.00;25.00;;;;;0.85;59.19;100522.56;2443705;27;45580;-76
2022/12/13 01:31:43;;;;;;;;;32.50;29.00;;;;;0.86;59.26;100523.44;2453145;27;44660;-76
2022/12/13 01:32:54;;;;;;;;;31.25;27.25;;;;;0.85;59.26;100519.97;2461656;27;45330;-76
2022/12/13 01:34:09;;;;;;;;;30.00;26.50;;;;;0.84;58.69;100515.63;2453765;27;45229;-76
2022/12/13 01:35:19;;;;;;;;;32.00;26.75;;;;;0.84;58.22;100512.22;2440992;28;48327;-76
2022/12/13 01:36:29;;;;;;;;;30.00;29.25;;;;;0.83;59.09;100507.88;2443495;28;45201;-76
2022/12/13 01:37:40;;;;;;;;;46.50;30.00;;;;;0.81;59.09;100510.47;2453929;27;45496;-76
2022/12/13 01:38:50;;;;;;;;;33.75;30.75;;;;;0.82;58.83;100507.00;2461104;27;45424;-76
2022/12/13 01:40:01;;;;;;;;;44.75;34.50;;;;;0.82;58.49;100508.72;2450031;27;47141;-76
2022/12/13 01:41:17;;;;;;;;;34.75;28.75;;;;;0.81;58.52;100507.88;2454127;27;45271;-76
2022/12/13 01:42:28;;;;;;;;;32.50;26.50;;;;;0.82;58.67;100511.31;2450317;28;47067;-76
2022/12/13 01:43:42;;;;;;;;;42.00;31.75;;;;;0.82;58.97;100507.00;2453856;27;45311;-76
2022/12/13 01:44:55;;;;;;;;;35.00;24.50;;;;;0.83;59.11;100513.94;2449878;28;47039;-76
2022/12/13 01:46:05;;;;;;;;;38.75;25.00;;;;;0.83;58.89;100505.28;2454640;27;44705;-76
2022/12/13 01:47:26;;;;;;;;;36.75;29.25;;;;;0.82;58.81;100504.44;2453689;27;46786;-76
2022/12/13 01:48:43;;;;;;;;;39.25;28.75;;;;;0.82;58.78;100509.59;2445212;28;44610;-76
2022/12/13 01:49:57;;;;;;;;;29.75;25.75;;;;;0.82;59.27;100501.84;2453829;27;46392;-76
2022/12/13 01:51:14;;;;;;;;;34.25;28.50;;;;;0.84;58.44;100509.63;2460236;27;44639;-76
2022/12/13 01:52:25;;;;;;;;;37.25;27.75;;;;;0.84;58.91;100505.28;2450870;28;47443;-76
2022/12/13 01:53:39;;;;;;;;;40.50;29.25;;;;;0.84;58.58;100500.13;2453766;27;45437;-76
2022/12/13 01:54:54;;;;;;;;;34.75;26.00;;;;;0.85;59.02;100506.16;2457159;27;46569;-76
2022/12/13 01:56:11;;;;;;;;;36.00;29.25;;;;;0.84;58.35;100507.88;2456580;27;45322;-76
2022/12/13 01:57:22;;;;;;;;;28.75;28.25;;;;;0.83;58.21;100511.34;2453380;27;45428;-76
2022/12/13 01:58:35;;;;;;;;;23.75;18.75;;;;;0.82;58.42;100512.19;2451141;28;45314;-76
2022/12/13 01:59:47;;;;;;;;;39.00;31.50;;;;;0.83;58.60;100513.94;2451789;27;45510;-76
2022/12/13 02:00:59;;;;;;;;;39.75;34.50;;;;;0.82;57.97;100508.72;2461729;27;44661;-76
2022/12/13 02:02:12;;;;;;;;;31.25;27.00;;;;;0.82;57.68;100517.38;2461439;27;46170;-76
2022/12/13 02:03:23;;;;;;;;;41.00;32.50;;;;;0.84;58.26;100509.63;2461482;27;45469;-76
2022/12/13 02:04:59;;;;;;;;;39.75;36.75;;;;;0.86;58.12;100513.09;2454757;27;46571;-76
2022/12/13 02:06:16;;;;;;;;;38.75;28.00;;;;;0.85;58.65;100511.34;2441903;28;45183;-76
2022/12/13 02:07:30;;;;;;;;;35.25;28.00;;;;;0.86;57.95;100518.25;2446112;28;45429;-76
2022/12/13 02:08:43;;;;;;;;;36.25;33.50;;;;;0.86;58.55;100510.50;2456754;27;45295;-76
2022/12/13 02:09:56;;;;;;;;;42.00;33.00;;;;;0.86;58.50;100513.94;2458042;27;45567;-76
2022/12/13 02:11:08;;;;;;;;;34.50;29.50;;;;;0.86;58.13;100516.53;2457299;27;45252;-76
2022/12/13 02:12:19;;;;;;;;;45.50;32.50;;;;;0.87;58.27;100517.38;2453651;27;45611;-76
2022/12/13 02:13:29;;;;;;;;;33.50;25.75;;;;;0.86;58.20;100515.66;2461627;27;44590;-76
2022/12/13 02:14:40;;;;;;;;;35.75;29.50;;;;;0.87;58.12;100522.56;2453431;27;46349;-76
2022/12/13 02:16:06;;;;;;;;;32.25;27.00;;;;;0.88;58.69;100527.75;2451998;27;45374;-76
2022/12/13 02:17:41;;;;;;;;;32.25;25.75;;;;;0.87;58.29;100528.59;2448848;27;47141;-76
2022/12/13 02:19:12;;;;;;;;;39.75;30.00;;;;;0.89;58.32;100533.78;2451703;27;45345;-76
2022/12/13 02:20:59;;;;;;;;;32.50;28.00;;;;;0.86;58.66;100524.31;2451636;28;45441;-76
2022/12/13 02:22:47;;;;;;;;;34.75;28.00;;;;;0.86;58.69;100528.59;2458715;27;47073;-76
2022/12/13 02:24:19;;;;;;;;;32.00;27.50;;;;;0.83;58.36;100520.81;2460473;27;45294;-76
2022/12/13 02:25:45;;;;;;;;;25.25;17.50;;;;;0.81;58.44;100525.13;2448314;28;45251;-76
2022/12/13 02:27:01;;;;;;;;;27.50;25.50;;;;;0.79;57.71;100519.97;2445893;27;46665;-76
2022/12/13 02:28:41;;;;;;;;;30.75;20.75;;;;;0.78;57.60;100526.84;2461668;27;44700;-76
2022/12/13 02:30:10;;;;;;;;;32.50;23.50;;;;;0.78;58.07;100515.63;2449030;28;47569;-76
2022/12/13 02:31:59;;;;;;;;;30.50;23.50;;;;;0.78;58.44;100513.91;2439460;28;45536;-76
2022/12/13 02:33:18;;;;;;;;;29.00;23.25;;;;;0.78;58.15;100520.81;2450485;27;45787;-76
2022/12/13 02:34:35;;;;;;;;;36.75;26.50;;;;;0.77;58.09;100519.06;2451205;27;45217;-76
2022/12/13 02:36:04;;;;;;;;;27.25;22.75;;;;;0.77;57.86;100513.88;2440797;28;46467;-76
2022/12/13 02:37:14;;;;;;;;;31.75;25.50;;;;;0.77;57.98;100514.75;2450353;28;45374;-76
2022/12/13 02:38:27;;;;;;;;;32.00;23.50;;;;;0.77;58.11;100514.75;2453760;27;45305;-76
2022/12/13 02:39:46;;;;;;;;;34.75;29.00;;;;;0.78;58.12;100515.63;2440913;28;44591;-76
2022/12/13 02:41:12;;;;;;;;;28.00;25.00;;;;;0.80;58.21;100508.72;2446867;27;45427;-76
2022/12/13 02:42:30;;;;;;;;;26.75;24.00;;;;;0.79;57.24;100512.19;2450039;28;45180;-76
2022/12/13 02:43:54;;;;;;;;;30.00;26.00;;;;;0.79;57.88;100519.97;2450994;28;45595;-76
2022/12/13 02:45:15;;;;;;;;;29.25;27.00;;;;;0.79;58.01;100509.59;2451589;28;45244;-76
2022/12/13 02:46:29;;;;;;;;;31.00;22.50;;;;;0.78;57.14;100505.28;2457765;27;45608;-76
2022/12/13 02:47:42;;;;;;;;;29.25;27.75;;;;;0.78;57.90;100511.31;2451491;27;45231;-76
2022/12/13 02:48:58;;;;;;;;;27.00;24.50;;;;;0.80;57.80;100510.44;2458345;27;45519;-76
2022/12/13 02:50:12;;;;;;;;;38.50;23.50;;;;;0.79;57.66;100509.59;2451057;27;45155;-76
2022/12/13 02:51:25;;;;;;;;;28.50;24.50;;;;;0.80;57.74;100515.63;2455665;27;45409;-76
2022/12/13 02:52:38;;;;;;;;;29.00;24.25;;;;;0.81;57.90;100507.03;2461243;27;45203;-76
2022/12/13 02:53:48;;;;;;;;;41.00;29.25;;;;;0.81;57.50;100507.03;2449840;28;47054;-76
2022/12/13 02:54:59;;;;;;;;;29.75;25.00;;;;;0.79;56.96;100501.84;2439508;28;45301;-76
2022/12/13 02:56:10;;;;;;;;;27.50;21.50;;;;;0.79;57.44;100501.84;2449724;27;46160;-76
2022/12/13 02:57:38;;;;;;;;;26.75;22.75;;;;;0.76;57.16;100502.69;2456780;27;45176;-76
2022/12/13 02:58:52;;;;;;;;;23.50;19.50;;;;;0.76;57.00;100494.06;2444316;28;47803;-76
2022/12/13 03:00:11;;;;;;;;;9.00;9.00;;;;;0.73;57.09;100494.03;2439598;28;45331;-76
2022/12/13 03:01:27;;;;;;;;;30.25;24.00;;;;;0.74;56.85;100499.22;2445312;27;46525;-76
2022/12/13 03:03:08;;;;;;;;;20.25;16.50;;;;;0.73;56.83;100494.03;2450508;28;45259;-76
2022/12/13 03:04:34;;;;;;;;;25.75;20.00;;;;;0.73;56.98;100499.22;2453422;27;46725;-76
2022/12/13 03:07:29;;;;;;;;;30.75;21.00;;;;;0.71;57.09;100499.22;2457185;27;45220;-76
2022/12/13 03:09:06;;;;;;;;;28.50;21.25;;;;;0.72;56.42;100497.47;2458237;27;45267;-76
2022/12/13 03:10:24;;;;;;;;;33.50;26.00;;;;;0.73;56.81;100496.63;2450758;27;45212;-76
2022/12/13 03:13:50;;;;;;;;;26.75;23.00;;;;;0.73;56.78;100496.63;2451273;27;45283;-76
2022/12/13 03:15:16;;;;;;;;;22.75;21.00;;;;;0.73;56.87;100496.63;2451811;27;45243;-76
2022/12/13 03:16:47;;;;;;;;;27.25;24.25;;;;;0.74;57.66;100494.03;2458498;27;46579;-76
2022/12/13 03:18:14;;;;;;;;;37.50;23.25;;;;;0.75;57.07;100487.16;2457718;27;45169;-76
2022/12/13 03:19:25;;;;;;;;;25.25;23.75;;;;;0.74;56.90;100482.84;2448582;28;48351;-76
2022/12/13 03:20:35;;;;;;;;;34.50;22.25;;;;;0.74;56.90;100481.09;2440720;28;45236;-76
2022/12/13 03:21:48;;;;;;;;;26.00;20.50;;;;;0.74;56.61;100477.69;2450497;27;46672;-76
2022/12/13 03:22:58;;;;;;;;;27.25;22.00;;;;;0.73;56.81;100476.81;2461046;27;44759;-76
2022/12/13 03:24:08;;;;;;;;;28.00;20.00;;;;;0.73;57.00;100475.94;2457497;27;46233;-76
2022/12/13 03:25:20;;;;;;;;;24.00;19.75;;;;;0.76;56.78;100475.94;2450910;27;44627;-76
2022/12/13 03:26:31;;;;;;;;;27.00;21.00;;;;;0.75;56.63;100475.09;2449709;27;47421;-76
2022/12/13 03:27:41;;;;;;;;;23.25;19.75;;;;;0.77;56.80;100472.50;2444416;28;44685;-76
2022/12/13 03:28:52;;;;;;;;;28.00;24.00;;;;;0.77;56.54;100475.06;2444960;27;47497;-76
2022/12/13 03:30:03;;;;;;;;;31.25;24.00;;;;;0.80;56.18;100476.81;2455459;27;45195;-76
2022/12/13 03:31:13;;;;;;;;;19.00;17.75;;;;;0.78;56.88;100462.16;2459398;27;45372;-76
2022/12/13 03:32:23;;;;;;;;;22.50;15.75;;;;;0.79;56.75;100463.03;2449324;27;45341;-76
2022/12/13 03:33:35;;;;;;;;;23.25;22.50;;;;;0.81;57.11;100466.47;2446596;28;48070;-76
2022/12/13 03:34:45;;;;;;;;;29.50;25.00;;;;;0.80;56.25;100469.91;2449252;28;45401;-76
2022/12/13 03:35:56;;;;;;;;;33.25;24.50;;;;;0.80;56.96;100456.97;2453519;27;46371;-76
2022/12/13 03:37:07;;;;;;;;;31.75;24.75;;;;;0.79;56.17;100463.03;2456326;27;45359;-76
2022/12/13 03:38:18;;;;;;;;;30.50;22.25;;;;;0.77;56.03;100456.97;2452219;27;45256;-76
2022/12/13 03:39:28;;;;;;;;;21.25;19.50;;;;;0.79;56.81;100463.03;2457876;27;44603;-76
2022/12/13 03:40:38;;;;;;;;;31.00;24.25;;;;;0.77;55.56;100468.19;2451071;28;46183;-76
2022/12/13 03:41:49;;;;;;;;;28.00;24.50;;;;;0.76;55.81;100465.59;2447983;28;44734;-76
2022/12/13 03:43:00;;;;;;;;;27.00;23.50;;;;;0.74;55.75;100467.31;2449726;27;48214;-76
2022/12/13 03:44:11;;;;;;;;;26.00;24.25;;;;;0.72;56.58;100469.88;2451740;27;45662;-76
2022/12/13 03:45:21;;;;;;;;;31.25;22.75;;;;;0.75;56.57;100469.03;2441800;28;48160;-76
2022/12/13 03:46:32;;;;;;;;;27.50;23.75;;;;;0.76;57.04;100463.00;2442502;28;45306;-76
2022/12/13 03:47:42;;;;;;;;;20.00;16.75;;;;;0.77;56.61;100469.91;2452454;27;45311;-76
2022/12/13 03:48:53;;;;;;;;;31.75;23.75;;;;;0.77;56.87;100475.94;2452900;27;45227;-76
2022/12/13 03:50:04;;;;;;;;;25.00;22.50;;;;;0.79;56.90;100470.81;2445688;28;47051;-76
2022/12/13 03:51:14;;;;;;;;;27.00;23.50;;;;;0.81;56.26;100478.56;2449844;27;45421;-76
2022/12/13 03:52:24;;;;;;;;;29.00;23.00;;;;;0.78;56.66;100482.88;2455530;27;48397;-76
2022/12/13 03:53:35;;;;;;;;;33.00;22.50;;;;;0.80;56.74;100477.69;2460801;27;44615;-76
2022/12/13 03:54:46;;;;;;;;;23.50;21.75;;;;;0.80;56.53;100480.28;2450470;27;46395;-76
2022/12/13 03:55:56;;;;;;;;;25.25;21.00;;;;;0.80;56.32;100482.84;2450630;27;45496;-76
2022/12/13 03:57:06;;;;;;;;;27.50;21.50;;;;;0.81;56.57;100487.19;2452234;27;46251;-76
2022/12/13 03:58:17;;;;;;;;;32.25;20.00;;;;;0.83;56.25;100487.19;2458450;27;44607;-76
2022/12/13 03:59:27;;;;;;;;;24.75;19.50;;;;;0.83;56.44;100480.28;2450857;28;45289;-76
2022/12/13 04:00:38;;;;;;;;;22.25;21.00;;;;;0.82;56.81;100473.38;2454216;27;46999;-76
2022/12/13 04:01:48;;;;;;;;;23.25;20.50;;;;;0.83;56.91;100482.88;2450768;28;45212;-76
2022/12/13 04:02:58;;;;;;;;;22.50;21.25;;;;;0.85;57.41;100480.28;2458816;27;45422;-76
2022/12/13 04:04:09;;;;;;;;;26.25;25.00;;;;;0.84;56.71;100479.41;2456352;27;45462;-76
2022/12/13 04:05:19;;;;;;;;;30.50;22.00;;;;;0.85;56.37;100477.69;2449522;28;45291;-76
2022/12/13 04:06:29;;;;;;;;;37.25;26.50;;;;;0.84;56.30;100479.41;2444589;28;46273;-76
2022/12/13 04:07:40;;;;;;;;;22.75;20.75;;;;;0.83;56.11;100482.88;2457879;27;45026;-76
2022/12/13 04:08:51;;;;;;;;;25.00;20.75;;;;;0.84;56.28;100481.16;2452021;27;45362;-76
2022/12/13 04:10:03;;;;;;;;;28.50;24.00;;;;;0.84;56.48;100486.34;2437296;28;45353;-76
2022/12/13 04:14:19;;;;;;;;;32.25;24.00;;;;;0.80;55.62;100477.69;2455175;27;45650;-76
2022/12/13 04:15:30;;;;;;;;;33.25;23.75;;;;;0.80;56.04;100477.69;2453863;27;45178;-76
2022/12/13 04:16:40;;;;;;;;;21.50;19.50;;;;;0.79;56.35;100473.38;2450622;27;47100;-76
2022/12/13 04:17:50;;;;;;;;;31.75;26.00;;;;;0.77;55.87;100472.50;2454019;27;45374;-76
2022/12/13 04:19:01;;;;;;;;;28.25;23.25;;;;;0.75;56.02;100477.66;2441978;28;48223;-76
2022/12/13 04:20:11;;;;;;;;;25.50;24.50;;;;;0.74;55.75;100475.09;2441249;28;45311;-76
2022/12/13 04:21:21;;;;;;;;;34.25;28.75;;;;;0.71;55.51;100469.91;2445184;28;45535;-76
2022/12/13 04:22:32;;;;;;;;;35.25;22.75;;;;;0.69;55.46;100469.03;2447218;28;45285;-76
2022/12/13 04:23:42;;;;;;;;;26.50;20.50;;;;;0.69;56.55;100466.44;2454253;27;46272;-76
2022/12/13 04:24:52;;;;;;;;;30.25;24.50;;;;;0.67;55.89;100467.28;2450364;28;44944;-76
2022/12/13 04:26:03;;;;;;;;;27.75;20.00;;;;;0.66;56.22;100470.75;2443211;28;46840;-76
2022/12/13 04:27:13;;;;;;;;;28.75;23.25;;;;;0.64;55.88;100461.25;2441741;28;45307;-76
2022/12/13 04:28:24;;;;;;;;;38.50;26.00;;;;;0.62;56.15;100463.81;2449958;27;46396;-76
2022/12/13 04:29:34;;;;;;;;;21.25;19.25;;;;;0.62;55.53;100458.63;2451799;28;44708;-76
2022/12/13 04:30:44;;;;;;;;;29.25;27.00;;;;;0.62;55.93;100463.81;2441844;28;48341;-76
2022/12/13 04:31:55;;;;;;;;;26.75;21.75;;;;;0.61;55.83;100451.75;2452630;27;44825;-76
2022/12/13 04:33:05;;;;;;;;;39.50;30.75;;;;;0.60;55.98;100455.19;2449739;28;47176;-77
2022/12/13 04:34:15;;;;;;;;;26.00;23.00;;;;;0.60;56.46;100457.78;2452539;27;45177;-76
2022/12/13 04:35:26;;;;;;;;;30.25;26.75;;;;;0.61;56.28;100449.16;2441801;28;47177;-76
2022/12/13 04:36:36;;;;;;;;;31.25;27.75;;;;;0.62;55.75;100461.22;2444976;28;45192;-76
2022/12/13 04:37:46;;;;;;;;;28.75;27.00;;;;;0.61;56.15;100456.94;2459184;27;46900;-76
2022/12/13 04:38:57;;;;;;;;;36.00;28.50;;;;;0.60;55.96;100450.00;2460932;27;45563;-76
2022/12/13 04:40:08;;;;;;;;;26.50;21.75;;;;;0.60;55.83;100455.19;2462004;27;45203;-76
2022/12/13 04:41:19;;;;;;;;;25.75;22.00;;;;;0.60;56.30;100452.59;2461217;27;45226;-76
2022/12/13 04:42:30;;;;;;;;;30.75;27.00;;;;;0.60;55.43;100450.00;2461933;27;45478;-76
2022/12/13 04:43:40;;;;;;;;;29.00;24.00;;;;;0.59;55.63;100448.31;2454410;27;44695;-76
2022/12/13 04:44:51;;;;;;;;;34.25;26.25;;;;;0.60;55.89;100444.84;2452190;28;45313;-76
2022/12/13 04:46:01;;;;;;;;;33.50;25.25;;;;;0.60;56.08;100444.84;2441786;28;45824;-76
2022/12/13 04:47:11;;;;;;;;;35.50;29.25;;;;;0.60;56.08;100450.00;2447106;27;45412;-76
2022/12/13 04:48:21;;;;;;;;;32.75;25.25;;;;;0.59;55.57;100448.31;2454842;27;45342;-76
2022/12/13 04:49:33;;;;;;;;;38.00;29.00;;;;;0.60;55.91;100456.91;2452760;27;46246;-76
2022/12/13 04:50:43;;;;;;;;;47.00;38.75;;;;;0.59;55.85;100455.19;2455756;27;44715;-76
2022/12/13 04:51:54;;;;;;;;;40.50;31.75;;;;;0.57;55.75;100450.00;2462112;27;45318;-76
2022/12/13 04:53:04;;;;;;;;;32.25;25.75;;;;;0.55;55.53;100451.72;2459406;27;47035;-77
2022/12/13 04:54:14;;;;;;;;;32.25;25.75;;;;;0.55;55.46;100451.72;2461211;27;46125;-77
2022/12/13 04:55:25;;;;;;;;;37.75;29.00;;;;;0.54;55.93;100450.84;2462073;27;45306;-76
2022/12/13 04:56:36;;;;;;;;;34.00;29.00;;;;;0.55;56.14;100451.72;2461880;27;45375;-76
2022/12/13 04:57:47;;;;;;;;;38.00;32.25;;;;;0.55;55.78;100451.72;2458054;27;44860;-76
2022/12/13 04:58:57;;;;;;;;;35.00;27.25;;;;;0.54;56.21;100450.84;2451817;27;45394;-76
2022/12/13 05:00:12;;;;;;;;;34.25;27.00;;;;;0.55;55.50;100451.72;2453820;27;45399;-76
2022/12/13 05:01:22;;;;;;;;;33.00;27.25;;;;;0.54;56.12;100450.00;2455576;27;46336;-76
2022/12/13 05:02:32;;;;;;;;;37.75;24.75;;;;;0.53;56.23;100445.69;2451268;28;44638;-76
2022/12/13 05:03:43;;;;;;;;;31.00;24.75;;;;;0.53;55.96;100443.09;2454372;27;45311;-78
2022/12/13 05:04:53;;;;;;;;;33.00;26.75;;;;;0.52;55.90;100441.38;2452478;27;45342;-76
2022/12/13 05:06:12;;;;;;;;;30.75;28.75;;;;;0.52;56.39;100441.38;2458469;27;46186;-76
2022/12/13 05:07:25;;;;;;;;;37.75;32.25;;;;;0.51;55.51;100444.81;2461880;27;45432;-76
2022/12/13 05:08:37;;;;;;;;;40.00;26.25;;;;;0.50;55.79;100440.47;2448855;27;48264;-76
2022/12/13 05:09:47;;;;;;;;;34.25;26.50;;;;;0.49;55.95;100444.81;2454616;27;45247;-76
2022/12/13 05:10:58;;;;;;;;;29.50;21.25;;;;;0.49;56.23;100446.53;2457518;27;45462;-76
2022/12/13 05:12:08;;;;;;;;;38.50;32.75;;;;;0.49;55.82;100442.22;2461898;27;44624;-76
2022/12/13 05:13:18;;;;;;;;;35.75;25.75;;;;;0.49;55.69;100439.66;2461755;27;45220;-76
2022/12/13 05:14:30;;;;;;;;;33.25;23.75;;;;;0.51;56.04;100442.22;2456973;27;44813;-76
2022/12/13 05:15:40;;;;;;;;;27.50;23.50;;;;;0.50;55.94;100443.94;2460445;27;45646;-76
2022/12/13 05:16:51;;;;;;;;;38.25;27.50;;;;;0.51;56.03;100444.81;2451360;28;45267;-76
2022/12/13 05:18:03;;;;;;;;;30.00;23.00;;;;;0.52;56.59;100446.56;2447983;28;47456;-76
2022/12/13 05:19:14;;;;;;;;;28.25;20.25;;;;;0.52;56.32;100446.56;2450617;28;45444;-76
2022/12/13 05:20:24;;;;;;;;;29.25;26.25;;;;;0.51;56.12;100445.69;2441419;28;48105;-76
2022/12/13 05:21:35;;;;;;;;;28.75;21.25;;;;;0.51;56.31;100445.69;2453726;27;45580;-76
2022/12/13 05:22:45;;;;;;;;;29.25;25.75;;;;;0.51;56.70;100439.63;2461877;27;46012;-76
2022/12/13 05:23:55;;;;;;;;;31.75;25.00;;;;;0.51;55.73;100437.06;2460665;27;44707;-76
2022/12/13 05:25:06;;;;;;;;;33.50;29.75;;;;;0.51;55.71;100440.50;2441451;28;47019;-76
2022/12/13 05:26:17;;;;;;;;;29.75;25.00;;;;;0.52;55.76;100438.78;2440269;28;45229;-76
2022/12/13 05:27:27;;;;;;;;;31.00;26.25;;;;;0.51;56.40;100435.34;2441359;28;48557;-76
2022/12/13 05:28:37;;;;;;;;;38.50;30.25;;;;;0.53;56.63;100443.09;2452190;27;45225;-76
2022/12/13 05:29:48;;;;;;;;;35.75;31.00;;;;;0.50;56.20;100433.59;2460097;27;45491;-76
2022/12/13 05:31:06;;;;;;;;;34.75;30.25;;;;;0.53;56.37;100437.91;2448696;28;45473;-76
2022/12/13 05:32:16;;;;;;;;;36.25;29.75;;;;;0.53;55.75;100432.75;2438899;27;47100;-76
2022/12/13 05:33:26;;;;;;;;;30.75;24.25;;;;;0.53;56.08;100436.19;2447741;27;45267;-76
2022/12/13 05:34:36;;;;;;;;;41.25;29.75;;;;;0.52;55.84;100436.22;2453351;27;46200;-76
2022/12/13 05:35:47;;;;;;;;;33.00;30.50;;;;;0.51;55.67;100429.28;2454299;27;45740;-76
2022/12/13 05:36:57;;;;;;;;;39.75;29.00;;;;;0.50;56.13;100433.59;2444206;27;47175;-76
2022/12/13 05:38:08;;;;;;;;;37.50;32.75;;;;;0.49;56.00;100434.47;2444074;28;45271;-76
2022/12/13 05:39:18;;;;;;;;;40.50;33.75;;;;;0.49;55.99;100437.06;2450530;28;45334;-76
2022/12/13 05:40:30;;;;;;;;;37.50;29.00;;;;;0.51;56.10;100439.63;2451848;27;45302;-76
2022/12/13 05:41:41;;;;;;;;;33.25;29.00;;;;;0.50;55.83;100437.91;2441000;28;47212;-76
2022/12/13 05:42:51;;;;;;;;;35.00;34.00;;;;;0.50;56.23;100443.06;2444127;28;44768;-76